createdAt,value
2022-11-14T00:01:24.530Z,100715.38
2022-11-14T00:06:46.093Z,100698.78
2022-11-14T00:12:07.802Z,100690.97
2022-11-14T00:17:30.412Z,100686.50
2022-11-14T00:22:51.791Z,100680.25
2022-11-14T00:28:13.728Z,100676.59
2022-11-14T00:33:36.775Z,100670.53
2022-11-14T00:38:58.314Z,100666.97
2022-11-14T00:44:19.673Z,100660.22
2022-11-14T00:49:42.491Z,100661.16
2022-11-14T00:55:04.403Z,100658.56
2022-11-14T01:00:25.700Z,100658.56
2022-11-14T01:05:50.469Z,100664.09
2022-11-14T01:11:12.824Z,100662.44
2022-11-14T01:16:35.821Z,100653.09
2022-11-14T01:22:01.783Z,100634.34
2022-11-14T01:27:27.228Z,100631.00
2022-11-14T01:32:48.585Z,100628.75
2022-11-14T01:38:14.797Z,100621.00
2022-11-14T01:43:36.943Z,100602.53
2022-11-14T01:49:01.138Z,100601.91
2022-11-14T01:54:26.472Z,100587.09
2022-11-14T01:59:52.865Z,100579.41
2022-11-14T02:05:16.595Z,100565.69
2022-11-14T02:10:39.287Z,100558.91
2022-11-14T02:16:00.727Z,100548.81
2022-11-14T02:21:23.163Z,100546.84
2022-11-14T02:26:44.691Z,100544.25
2022-11-14T02:32:10.458Z,100536.75
2022-11-14T02:37:33.743Z,100527.59
2022-11-14T02:42:55.353Z,100525.94
2022-11-14T02:48:16.736Z,100511.97
2022-11-14T02:53:39.588Z,100509.16
2022-11-14T02:59:01.067Z,100511.91
2022-11-14T03:04:22.629Z,100506.78
2022-11-14T03:09:45.422Z,100503.91
2022-11-14T03:15:08.487Z,100488.16
2022-11-14T03:20:29.946Z,100496.91
2022-11-14T03:25:52.431Z,100498.59
2022-11-14T03:31:14.601Z,100495.97
2022-11-14T03:36:36.296Z,100494.59
2022-11-14T03:41:58.930Z,100492.47
2022-11-14T03:47:20.501Z,100487.91
2022-11-14T03:52:41.971Z,100488.94
2022-11-14T03:58:04.724Z,100493.66
2022-11-14T04:03:26.506Z,100498.16
2022-11-14T04:08:47.675Z,100485.13
2022-11-14T04:14:10.895Z,100471.06
2022-11-14T04:19:32.369Z,100459.31
2022-11-14T04:24:53.739Z,100448.69
2022-11-14T04:30:17.153Z,100449.41
2022-11-14T04:35:38.733Z,100454.16
2022-11-14T04:41:00.211Z,100445.75
2022-11-14T04:46:22.980Z,100442.00
2022-11-14T04:51:44.288Z,100440.97
2022-11-14T04:57:05.775Z,100430.06
2022-11-14T05:02:28.531Z,100423.91
2022-11-14T05:07:49.954Z,100415.03
2022-11-14T05:13:11.442Z,100407.34
2022-11-14T05:18:34.249Z,100401.28
2022-11-14T05:23:55.604Z,100399.03
2022-11-14T05:29:17.049Z,100406.41
2022-11-14T05:34:39.940Z,100421.69
2022-11-14T05:40:01.506Z,100421.69
2022-11-14T05:45:23.037Z,100419.94
2022-11-14T05:50:45.815Z,100424.06
2022-11-14T05:56:10.101Z,100416.97
2022-11-14T06:01:31.256Z,100411.47
2022-11-14T06:06:54.222Z,100423.19
2022-11-14T06:12:15.581Z,100419.78
2022-11-14T06:17:36.839Z,100432.16
2022-11-14T06:22:59.664Z,100428.84
2022-11-14T06:28:20.965Z,100436.44
2022-11-14T06:33:42.711Z,100438.09
2022-11-14T06:39:05.571Z,100454.66
2022-11-14T06:44:30.676Z,100460.22
2022-11-14T06:49:52.522Z,100448.53
2022-11-14T06:55:16.288Z,100451.50
2022-11-14T07:00:38.706Z,100452.44
2022-11-14T07:06:00.523Z,100453.28
2022-11-14T07:11:26.390Z,100447.00
2022-11-14T07:16:48.017Z,100448.53
2022-11-14T07:22:09.201Z,100449.53
2022-11-14T07:27:31.999Z,100443.50
2022-11-14T07:32:56.930Z,100450.63
2022-11-14T07:38:18.188Z,100451.22
2022-11-14T07:43:41.649Z,100436.44
2022-11-14T07:49:02.792Z,100445.09
2022-11-14T07:54:24.101Z,100446.63
2022-11-14T07:59:46.858Z,100450.88
2022-11-14T08:05:08.952Z,100434.25
2022-11-14T08:10:33.597Z,100430.91
2022-11-14T08:15:57.183Z,100427.09
2022-11-14T08:21:18.382Z,100441.19
2022-11-14T08:26:39.969Z,100427.63
2022-11-14T08:32:02.653Z,100431.84
2022-11-14T08:37:24.237Z,100425.16
2022-11-14T08:42:45.584Z,100407.19
2022-11-14T08:48:08.553Z,100398.63
2022-11-14T08:53:30.768Z,100409.94
2022-11-14T08:58:52.172Z,100404.41
2022-11-14T09:04:15.147Z,100390.56
2022-11-14T09:09:36.874Z,100384.03
2022-11-14T09:14:58.184Z,100385.34
2022-11-14T09:20:21.085Z,100380.97
2022-11-14T09:25:42.736Z,100389.72
2022-11-14T09:31:05.150Z,100385.75
2022-11-14T09:36:27.897Z,100387.53
2022-11-14T09:41:58.680Z,100385.00
2022-11-14T09:47:23.757Z,100383.09
2022-11-14T09:52:48.334Z,100386.69
2022-11-14T09:58:13.943Z,100388.47
2022-11-14T10:03:44.703Z,100379.25
2022-11-14T10:09:30.475Z,100366.22
2022-11-14T10:15:01.593Z,100361.19
2022-11-14T10:20:27.667Z,100350.19
2022-11-14T10:25:56.757Z,100351.59
2022-11-14T10:31:24.231Z,100340.66
2022-11-14T10:37:00.637Z,100342.56
2022-11-14T10:42:27.116Z,100347.16
2022-11-14T10:47:52.977Z,100351.25
2022-11-14T10:53:21.131Z,100339.22
2022-11-14T10:58:48.964Z,100347.63
2022-11-14T11:04:20.333Z,100338.25
2022-11-14T11:09:59.471Z,100336.91
2022-11-14T11:15:23.936Z,100327.41
2022-11-14T11:20:45.115Z,100311.06
2022-11-14T11:26:09.010Z,100303.19
2022-11-14T11:31:50.071Z,100300.84
2022-11-14T11:37:16.628Z,100316.00
2022-11-14T11:48:25.064Z,100299.88
2022-11-14T11:53:49.512Z,100294.59
2022-11-14T11:59:22.696Z,100300.97
2022-11-14T12:04:45.557Z,100294.28
2022-11-14T12:10:14.997Z,100296.66
2022-11-14T12:15:45.782Z,100298.88
2022-11-14T12:21:12.477Z,100302.56
2022-11-14T12:26:47.015Z,100303.81
2022-11-14T12:32:13.754Z,100305.88
2022-11-14T12:37:39.030Z,100311.63
2022-11-14T12:43:00.845Z,100310.63
2022-11-14T12:48:24.372Z,100310.53
2022-11-14T12:53:46.942Z,100309.72
2022-11-14T12:59:26.145Z,100306.22
2022-11-14T13:05:01.175Z,100300.66
2022-11-14T13:10:30.842Z,100289.72
2022-11-14T13:16:10.696Z,100278.91
2022-11-14T13:21:47.155Z,100264.56
2022-11-14T13:27:52.277Z,100267.06
2022-11-14T13:33:09.334Z,100255.25
2022-11-14T13:38:52.134Z,100253.56
2022-11-14T13:44:33.708Z,100251.91
2022-11-14T13:49:59.976Z,100250.72
2022-11-14T13:55:22.813Z,100251.94
2022-11-14T14:01:04.651Z,100255.47
2022-11-14T14:06:35.902Z,100249.88
2022-11-14T14:12:23.182Z,100237.00
2022-11-14T14:17:54.007Z,100230.53
2022-11-14T14:23:25.439Z,100230.13
2022-11-14T14:28:53.323Z,100231.06
2022-11-14T14:34:28.060Z,100225.19
2022-11-14T14:39:59.813Z,100225.19
2022-11-14T14:45:22.428Z,100233.69
2022-11-14T14:50:50.716Z,100231.34
2022-11-14T14:56:19.547Z,100217.44
2022-11-14T15:01:40.885Z,100215.09
2022-11-14T15:07:04.195Z,100220.72
2022-11-14T15:12:27.554Z,100220.00
2022-11-14T15:17:49.766Z,100223.31
2022-11-14T15:23:21.715Z,100208.72
2022-11-14T15:28:44.722Z,100223.38
2022-11-14T15:34:08.030Z,100223.59
2022-11-14T15:39:30.699Z,100227.94
2022-11-14T15:44:52.343Z,100229.22
2022-11-14T15:50:26.606Z,100222.59
2022-11-14T15:55:49.402Z,100218.53
2022-11-14T16:01:16.034Z,100218.41
2022-11-14T16:06:37.309Z,100222.56
2022-11-14T16:12:00.128Z,100225.50
2022-11-14T16:17:21.455Z,100232.72
2022-11-14T16:22:43.180Z,100233.41
2022-11-14T16:28:06.153Z,100229.69
2022-11-14T16:33:27.553Z,100228.84
2022-11-14T16:38:52.259Z,100222.97
2022-11-14T16:44:17.368Z,100228.56
2022-11-14T16:49:38.933Z,100224.28
2022-11-14T16:55:00.243Z,100229.66
2022-11-14T17:00:23.312Z,100229.81
2022-11-14T17:05:45.496Z,100220.44
2022-11-14T17:11:09.572Z,100214.38
2022-11-14T17:16:32.413Z,100215.78
2022-11-14T17:21:53.857Z,100221.59
2022-11-14T17:27:15.328Z,100211.53
2022-11-14T17:32:38.030Z,100204.13
2022-11-14T17:38:00.507Z,100204.25
2022-11-14T17:43:21.935Z,100195.16
2022-11-14T17:48:44.840Z,100210.50
2022-11-14T17:54:06.239Z,100211.47
2022-11-14T17:59:27.569Z,100208.84
2022-11-14T18:04:50.365Z,100205.38
2022-11-14T18:10:11.563Z,100186.78
2022-11-14T18:15:33.536Z,100180.13
2022-11-14T18:20:56.305Z,100205.19
2022-11-14T18:26:18.410Z,100212.53
2022-11-14T18:31:39.632Z,100194.47
2022-11-14T18:37:03.041Z,100200.03
2022-11-14T18:42:24.148Z,100203.31
2022-11-14T18:47:45.671Z,100204.94
2022-11-14T18:53:08.562Z,100199.06
2022-11-14T18:58:30.042Z,100179.72
2022-11-14T19:03:52.102Z,100173.94
2022-11-14T19:09:18.237Z,100175.47
2022-11-14T19:14:39.709Z,100171.75
2022-11-14T19:20:01.312Z,100181.56
2022-11-14T19:25:23.892Z,100185.69
2022-11-14T19:30:45.481Z,100181.28
2022-11-14T19:36:08.061Z,100180.31
2022-11-14T19:41:31.151Z,100176.06
2022-11-14T19:46:52.622Z,100177.47
2022-11-14T19:52:14.133Z,100171.03
2022-11-14T19:57:36.713Z,100182.75
2022-11-14T20:02:58.373Z,100184.00
2022-11-14T20:08:19.856Z,100176.44
2022-11-14T20:13:44.010Z,100173.25
2022-11-14T20:19:05.758Z,100177.25
2022-11-14T20:24:26.937Z,100165.97
2022-11-14T20:29:49.971Z,100160.72
2022-11-14T20:35:11.208Z,100160.47
2022-11-14T20:40:33.183Z,100164.69
2022-11-14T20:46:01.083Z,100170.63
2022-11-14T20:51:24.122Z,100169.53
2022-11-14T20:56:45.528Z,100154.66
2022-11-14T21:02:10.181Z,100155.78
2022-11-14T21:07:31.597Z,100142.28
2022-11-14T21:13:06.792Z,100144.19
2022-11-14T21:18:30.264Z,100150.53
2022-11-14T21:23:52.481Z,100141.59
2022-11-14T21:29:14.921Z,100139.53
2022-11-14T21:34:37.905Z,100137.88
2022-11-14T21:39:59.012Z,100137.63
2022-11-14T21:45:20.530Z,100135.97
2022-11-14T21:50:43.239Z,100135.28
2022-11-14T21:56:09.598Z,100139.53
2022-11-14T22:01:44.963Z,100131.00
2022-11-14T22:07:08.775Z,100126.47
2022-11-14T22:12:30.528Z,100127.56
2022-11-14T22:17:51.781Z,100124.25
2022-11-14T22:23:14.679Z,100123.56
2022-11-14T22:28:35.953Z,100125.22
2022-11-14T22:33:58.771Z,100115.31
2022-11-14T22:39:21.172Z,100114.78
2022-11-14T22:44:42.691Z,100106.06
2022-11-14T22:50:04.237Z,100101.25
2022-11-14T22:55:26.823Z,100102.47
2022-11-14T23:00:48.580Z,100103.72
2022-11-14T23:06:10.373Z,100117.47
2022-11-14T23:11:34.103Z,100103.19
2022-11-14T23:16:55.234Z,100113.66
2022-11-14T23:22:16.755Z,100111.75
2022-11-14T23:27:39.747Z,100115.03
2022-11-14T23:33:01.188Z,100101.28
2022-11-14T23:38:22.695Z,100097.28
2022-11-14T23:43:45.457Z,100101.69
2022-11-14T23:49:07.062Z,100101.53
2022-11-14T23:54:28.338Z,100105.00
2022-11-14T23:59:51.281Z,100107.47
